sensor_id;sensor_type;location;lat;lon;timestamp;temperature;humidity
64951;DHT22;51482;47.014;7.652;2023-03-31T00:01:35;10.90;99.90
64951;DHT22;51482;47.014;7.652;2023-03-31T00:04:09;10.50;99.90
64951;DHT22;51482;47.014;7.652;2023-03-31T00:06:39;10.50;99.90
64951;DHT22;51482;47.014;7.652;2023-03-31T00:09:14;11.10;99.90
64951;DHT22;51482;47.014;7.652;2023-03-31T00:11:43;10.50;99.90
64951;DHT22;51482;47.014;7.652;2023-03-31T00:14:10;10.90;99.90
64951;DHT22;51482;47.014;7.652;2023-03-31T00:16:36;10.90;99.90
64951;DHT22;51482;47.014;7.652;2023-03-31T00:19:03;10.30;99.90
64951;DHT22;51482;47.014;7.652;2023-03-31T00:21:30;10.40;99.90
64951;DHT22;51482;47.014;7.652;2023-03-31T00:24:04;10.40;99.90
64951;DHT22;51482;47.014;7.652;2023-03-31T00:26:30;10.40;99.90
64951;DHT22;51482;47.014;7.652;2023-03-31T00:28:56;10.90;99.90
64951;DHT22;51482;47.014;7.652;2023-03-31T00:31:23;11.00;99.90
64951;DHT22;51482;47.014;7.652;2023-03-31T00:33:49;10.70;99.90
64951;DHT22;51482;47.014;7.652;2023-03-31T00:36:15;10.90;99.90
64951;DHT22;51482;47.014;7.652;2023-03-31T00:38:46;11.00;99.90
64951;DHT22;51482;47.014;7.652;2023-03-31T00:41:12;11.00;99.90
64951;DHT22;51482;47.014;7.652;2023-03-31T00:43:38;11.10;99.90
64951;DHT22;51482;47.014;7.652;2023-03-31T00:46:11;11.00;99.90
64951;DHT22;51482;47.014;7.652;2023-03-31T00:48:54;10.90;99.90
64951;DHT22;51482;47.014;7.652;2023-03-31T00:51:29;10.60;99.90
64951;DHT22;51482;47.014;7.652;2023-03-31T00:53:59;10.80;99.90
64951;DHT22;51482;47.014;7.652;2023-03-31T00:56:32;10.20;99.90
64951;DHT22;51482;47.014;7.652;2023-03-31T00:59:01;10.30;99.90
64951;DHT22;51482;47.014;7.652;2023-03-31T01:01:28;10.50;99.90
64951;DHT22;51482;47.014;7.652;2023-03-31T01:03:55;10.60;99.90
64951;DHT22;51482;47.014;7.652;2023-03-31T01:06:21;10.10;99.90
64951;DHT22;51482;47.014;7.652;2023-03-31T01:08:49;10.20;99.90
64951;DHT22;51482;47.014;7.652;2023-03-31T01:11:18;10.30;99.90
64951;DHT22;51482;47.014;7.652;2023-03-31T01:13:45;10.70;99.90
64951;DHT22;51482;47.014;7.652;2023-03-31T01:16:14;9.60;99.90
64951;DHT22;51482;47.014;7.652;2023-03-31T01:18:40;10.20;99.90
64951;DHT22;51482;47.014;7.652;2023-03-31T01:29:49;10.10;99.90
64951;DHT22;51482;47.014;7.652;2023-03-31T01:38:26;10.10;99.90
64951;DHT22;51482;47.014;7.652;2023-03-31T01:46:35;10.10;99.90
64951;DHT22;51482;47.014;7.652;2023-03-31T01:52:05;10.00;99.90
64951;DHT22;51482;47.014;7.652;2023-03-31T01:54:46;10.10;99.90
64951;DHT22;51482;47.014;7.652;2023-03-31T01:57:33;10.00;99.90
64951;DHT22;51482;47.014;7.652;2023-03-31T02:00:05;10.10;99.90
64951;DHT22;51482;47.014;7.652;2023-03-31T02:05:11;10.10;99.90
64951;DHT22;51482;47.014;7.652;2023-03-31T02:07:54;10.20;99.90
64951;DHT22;51482;47.014;7.652;2023-03-31T02:10:23;10.40;99.90
64951;DHT22;51482;47.014;7.652;2023-03-31T02:12:50;11.20;99.90
64951;DHT22;51482;47.014;7.652;2023-03-31T02:15:23;11.20;99.90
64951;DHT22;51482;47.014;7.652;2023-03-31T02:17:52;10.80;99.90
64951;DHT22;51482;47.014;7.652;2023-03-31T02:20:21;11.00;99.90
64951;DHT22;51482;47.014;7.652;2023-03-31T02:22:49;11.10;99.90
64951;DHT22;51482;47.014;7.652;2023-03-31T02:25:20;11.80;99.90
64951;DHT22;51482;47.014;7.652;2023-03-31T02:27:52;11.30;99.90
64951;DHT22;51482;47.014;7.652;2023-03-31T02:30:19;11.40;99.90
64951;DHT22;51482;47.014;7.652;2023-03-31T02:32:45;11.50;99.90
64951;DHT22;51482;47.014;7.652;2023-03-31T02:35:15;11.50;99.90
64951;DHT22;51482;47.014;7.652;2023-03-31T02:37:42;11.90;99.90
64951;DHT22;51482;47.014;7.652;2023-03-31T02:40:13;12.00;99.90
64951;DHT22;51482;47.014;7.652;2023-03-31T02:42:40;11.50;99.90
64951;DHT22;51482;47.014;7.652;2023-03-31T02:45:40;11.60;99.90
64951;DHT22;51482;47.014;7.652;2023-03-31T02:48:15;11.60;99.90
64951;DHT22;51482;47.014;7.652;2023-03-31T02:51:02;11.80;99.90
64951;DHT22;51482;47.014;7.652;2023-03-31T03:01:53;12.10;99.90
64951;DHT22;51482;47.014;7.652;2023-03-31T03:13:27;12.20;99.90
64951;DHT22;51482;47.014;7.652;2023-03-31T03:16:43;12.20;99.90
64951;DHT22;51482;47.014;7.652;2023-03-31T03:18:51;12.70;99.90
64951;DHT22;51482;47.014;7.652;2023-03-31T03:21:17;12.20;99.90
64951;DHT22;51482;47.014;7.652;2023-03-31T03:23:42;12.20;99.90
64951;DHT22;51482;47.014;7.652;2023-03-31T03:26:08;12.20;99.90
64951;DHT22;51482;47.014;7.652;2023-03-31T03:28:33;12.80;99.90
64951;DHT22;51482;47.014;7.652;2023-03-31T03:30:59;12.30;99.90
64951;DHT22;51482;47.014;7.652;2023-03-31T03:33:25;13.00;99.90
64951;DHT22;51482;47.014;7.652;2023-03-31T03:35:50;12.80;99.90
64951;DHT22;51482;47.014;7.652;2023-03-31T03:38:16;13.00;99.90
64951;DHT22;51482;47.014;7.652;2023-03-31T03:40:41;12.30;99.90
64951;DHT22;51482;47.014;7.652;2023-03-31T03:43:07;12.30;99.90
64951;DHT22;51482;47.014;7.652;2023-03-31T03:45:32;12.20;99.90
64951;DHT22;51482;47.014;7.652;2023-03-31T03:47:58;12.10;99.90
64951;DHT22;51482;47.014;7.652;2023-03-31T03:50:23;12.10;99.90
64951;DHT22;51482;47.014;7.652;2023-03-31T03:52:49;12.00;99.90
64951;DHT22;51482;47.014;7.652;2023-03-31T03:55:14;12.00;99.90
64951;DHT22;51482;47.014;7.652;2023-03-31T03:57:42;12.10;99.90
64951;DHT22;51482;47.014;7.652;2023-03-31T04:00:08;12.80;99.90
64951;DHT22;51482;47.014;7.652;2023-03-31T04:02:37;12.20;99.90
64951;DHT22;51482;47.014;7.652;2023-03-31T04:05:03;12.70;99.90
64951;DHT22;51482;47.014;7.652;2023-03-31T04:07:29;12.10;99.90
64951;DHT22;51482;47.014;7.652;2023-03-31T04:09:54;12.60;99.90
64951;DHT22;51482;47.014;7.652;2023-03-31T04:12:20;12.20;99.90
64951;DHT22;51482;47.014;7.652;2023-03-31T04:14:45;12.60;99.90
64951;DHT22;51482;47.014;7.652;2023-03-31T04:17:11;12.20;99.90
64951;DHT22;51482;47.014;7.652;2023-03-31T04:19:40;12.00;99.90
64951;DHT22;51482;47.014;7.652;2023-03-31T04:22:06;12.60;99.90
64951;DHT22;51482;47.014;7.652;2023-03-31T04:24:36;12.20;99.90
64951;DHT22;51482;47.014;7.652;2023-03-31T04:27:03;12.70;99.90
64951;DHT22;51482;47.014;7.652;2023-03-31T04:29:31;12.80;99.90
64951;DHT22;51482;47.014;7.652;2023-03-31T04:31:58;12.20;99.90
64951;DHT22;51482;47.014;7.652;2023-03-31T04:34:25;12.30;99.90
64951;DHT22;51482;47.014;7.652;2023-03-31T04:36:59;12.40;99.90
64951;DHT22;51482;47.014;7.652;2023-03-31T04:39:27;12.30;99.90
64951;DHT22;51482;47.014;7.652;2023-03-31T04:41:55;12.90;99.90
64951;DHT22;51482;47.014;7.652;2023-03-31T04:44:21;12.40;99.90
64951;DHT22;51482;47.014;7.652;2023-03-31T04:46:46;12.50;99.90
64951;DHT22;51482;47.014;7.652;2023-03-31T04:49:12;12.80;99.90
64951;DHT22;51482;47.014;7.652;2023-03-31T04:51:37;12.30;99.90
64951;DHT22;51482;47.014;7.652;2023-03-31T04:54:03;12.70;99.90
64951;DHT22;51482;47.014;7.652;2023-03-31T04:56:29;12.40;99.90
64951;DHT22;51482;47.014;7.652;2023-03-31T04:58:54;12.20;99.90
64951;DHT22;51482;47.014;7.652;2023-03-31T05:01:20;12.00;99.90
64951;DHT22;51482;47.014;7.652;2023-03-31T05:03:46;12.40;99.90
64951;DHT22;51482;47.014;7.652;2023-03-31T05:06:13;12.00;99.90
64951;DHT22;51482;47.014;7.652;2023-03-31T05:08:39;12.00;99.90
64951;DHT22;51482;47.014;7.652;2023-03-31T05:11:05;11.90;99.90
64951;DHT22;51482;47.014;7.652;2023-03-31T05:13:31;12.40;99.90
64951;DHT22;51482;47.014;7.652;2023-03-31T05:15:57;11.90;99.90
64951;DHT22;51482;47.014;7.652;2023-03-31T05:18:22;11.90;99.90
64951;DHT22;51482;47.014;7.652;2023-03-31T05:20:48;11.90;99.90
64951;DHT22;51482;47.014;7.652;2023-03-31T05:23:13;12.50;99.90
64951;DHT22;51482;47.014;7.652;2023-03-31T05:25:39;12.30;99.90
64951;DHT22;51482;47.014;7.652;2023-03-31T05:28:07;12.40;99.90
64951;DHT22;51482;47.014;7.652;2023-03-31T05:30:34;13.00;99.90
64951;DHT22;51482;47.014;7.652;2023-03-31T05:32:59;11.90;99.90
64951;DHT22;51482;47.014;7.652;2023-03-31T05:35:25;12.40;99.90
64951;DHT22;51482;47.014;7.652;2023-03-31T05:37:51;12.20;99.90
64951;DHT22;51482;47.014;7.652;2023-03-31T05:40:16;11.80;99.90
64951;DHT22;51482;47.014;7.652;2023-03-31T05:42:42;11.90;99.90
64951;DHT22;51482;47.014;7.652;2023-03-31T05:45:08;11.60;99.90
64951;DHT22;51482;47.014;7.652;2023-03-31T05:47:34;11.40;99.90
64951;DHT22;51482;47.014;7.652;2023-03-31T05:49:59;11.30;99.90
64951;DHT22;51482;47.014;7.652;2023-03-31T05:52:25;12.10;99.90
64951;DHT22;51482;47.014;7.652;2023-03-31T05:54:50;11.10;99.90
64951;DHT22;51482;47.014;7.652;2023-03-31T05:57:16;12.10;99.90
64951;DHT22;51482;47.014;7.652;2023-03-31T05:59:41;11.50;99.90
64951;DHT22;51482;47.014;7.652;2023-03-31T06:02:07;12.00;99.90
64951;DHT22;51482;47.014;7.652;2023-03-31T06:04:35;12.00;99.90
64951;DHT22;51482;47.014;7.652;2023-03-31T06:07:01;11.70;99.90
64951;DHT22;51482;47.014;7.652;2023-03-31T06:09:27;12.20;99.90
64951;DHT22;51482;47.014;7.652;2023-03-31T06:11:52;11.80;99.90
64951;DHT22;51482;47.014;7.652;2023-03-31T06:14:18;12.30;99.90
64951;DHT22;51482;47.014;7.652;2023-03-31T06:16:44;12.30;99.90
64951;DHT22;51482;47.014;7.652;2023-03-31T06:19:12;11.70;99.90
64951;DHT22;51482;47.014;7.652;2023-03-31T06:21:37;11.70;99.90
64951;DHT22;51482;47.014;7.652;2023-03-31T06:24:03;11.80;99.90
64951;DHT22;51482;47.014;7.652;2023-03-31T06:26:28;12.30;99.90
64951;DHT22;51482;47.014;7.652;2023-03-31T06:28:54;11.90;99.90
64951;DHT22;51482;47.014;7.652;2023-03-31T06:31:22;12.10;99.90
64951;DHT22;51482;47.014;7.652;2023-03-31T06:33:47;11.90;99.90
64951;DHT22;51482;47.014;7.652;2023-03-31T06:36:16;11.40;99.90
64951;DHT22;51482;47.014;7.652;2023-03-31T06:38:42;11.40;99.90
64951;DHT22;51482;47.014;7.652;2023-03-31T06:41:10;11.40;99.90
64951;DHT22;51482;47.014;7.652;2023-03-31T06:43:36;11.60;99.90
64951;DHT22;51482;47.014;7.652;2023-03-31T06:46:02;12.40;99.90
64951;DHT22;51482;47.014;7.652;2023-03-31T06:48:27;12.10;99.90
64951;DHT22;51482;47.014;7.652;2023-03-31T06:50:53;11.50;99.90
64951;DHT22;51482;47.014;7.652;2023-03-31T06:53:20;12.20;99.90
64951;DHT22;51482;47.014;7.652;2023-03-31T06:55:48;11.80;99.90
64951;DHT22;51482;47.014;7.652;2023-03-31T06:58:14;11.90;99.90
64951;DHT22;51482;47.014;7.652;2023-03-31T07:00:40;12.10;99.90
64951;DHT22;51482;47.014;7.652;2023-03-31T07:03:05;12.70;99.90
64951;DHT22;51482;47.014;7.652;2023-03-31T07:05:33;11.90;99.90
64951;DHT22;51482;47.014;7.652;2023-03-31T07:07:59;11.50;99.90
64951;DHT22;51482;47.014;7.652;2023-03-31T07:10:27;13.10;99.90
64951;DHT22;51482;47.014;7.652;2023-03-31T07:12:53;13.00;99.90
64951;DHT22;51482;47.014;7.652;2023-03-31T07:15:19;12.60;99.90
64951;DHT22;51482;47.014;7.652;2023-03-31T07:17:45;12.60;99.90
64951;DHT22;51482;47.014;7.652;2023-03-31T07:20:15;12.60;99.90
64951;DHT22;51482;47.014;7.652;2023-03-31T07:22:43;13.00;99.90
64951;DHT22;51482;47.014;7.652;2023-03-31T07:25:09;13.10;99.90
64951;DHT22;51482;47.014;7.652;2023-03-31T07:27:35;12.90;99.90
64951;DHT22;51482;47.014;7.652;2023-03-31T07:30:03;13.20;99.90
64951;DHT22;51482;47.014;7.652;2023-03-31T07:32:29;13.00;99.90
64951;DHT22;51482;47.014;7.652;2023-03-31T07:34:55;13.10;99.90
64951;DHT22;51482;47.014;7.652;2023-03-31T07:37:20;13.20;99.90
64951;DHT22;51482;47.014;7.652;2023-03-31T07:39:46;13.20;99.90
64951;DHT22;51482;47.014;7.652;2023-03-31T07:42:11;13.80;99.90
64951;DHT22;51482;47.014;7.652;2023-03-31T07:44:37;13.60;99.90
64951;DHT22;51482;47.014;7.652;2023-03-31T07:47:02;14.20;99.90
64951;DHT22;51482;47.014;7.652;2023-03-31T07:49:31;13.70;99.90
64951;DHT22;51482;47.014;7.652;2023-03-31T07:51:56;13.90;99.90
64951;DHT22;51482;47.014;7.652;2023-03-31T07:54:22;13.60;99.90
64951;DHT22;51482;47.014;7.652;2023-03-31T07:56:47;13.30;99.90
64951;DHT22;51482;47.014;7.652;2023-03-31T07:59:13;14.10;99.90
64951;DHT22;51482;47.014;7.652;2023-03-31T08:01:39;13.80;99.90
64951;DHT22;51482;47.014;7.652;2023-03-31T08:04:05;13.90;99.90
64951;DHT22;51482;47.014;7.652;2023-03-31T08:06:31;14.20;99.90
64951;DHT22;51482;47.014;7.652;2023-03-31T08:08:57;14.10;99.90
64951;DHT22;51482;47.014;7.652;2023-03-31T08:11:22;14.00;99.90
64951;DHT22;51482;47.014;7.652;2023-03-31T08:13:49;14.60;99.90
64951;DHT22;51482;47.014;7.652;2023-03-31T08:16:15;14.10;99.90
64951;DHT22;51482;47.014;7.652;2023-03-31T08:18:41;14.20;99.90
64951;DHT22;51482;47.014;7.652;2023-03-31T08:21:06;14.30;99.90
64951;DHT22;51482;47.014;7.652;2023-03-31T08:23:34;14.30;99.90
64951;DHT22;51482;47.014;7.652;2023-03-31T08:26:08;14.40;99.90
64951;DHT22;51482;47.014;7.652;2023-03-31T08:28:33;14.40;99.90
64951;DHT22;51482;47.014;7.652;2023-03-31T08:31:04;14.70;99.90
64951;DHT22;51482;47.014;7.652;2023-03-31T08:33:30;14.80;99.90
64951;DHT22;51482;47.014;7.652;2023-03-31T08:35:56;14.50;99.90
64951;DHT22;51482;47.014;7.652;2023-03-31T08:38:25;15.10;99.90
64951;DHT22;51482;47.014;7.652;2023-03-31T08:40:58;14.80;99.90
64951;DHT22;51482;47.014;7.652;2023-03-31T08:43:29;14.40;99.90
64951;DHT22;51482;47.014;7.652;2023-03-31T08:45:57;13.20;99.90
64951;DHT22;51482;47.014;7.652;2023-03-31T08:48:37;12.80;99.90
64951;DHT22;51482;47.014;7.652;2023-03-31T08:51:24;12.40;99.90
64951;DHT22;51482;47.014;7.652;2023-03-31T08:56:27;12.80;99.90
64951;DHT22;51482;47.014;7.652;2023-03-31T08:58:54;12.60;99.90
64951;DHT22;51482;47.014;7.652;2023-03-31T09:01:28;12.60;99.90
64951;DHT22;51482;47.014;7.652;2023-03-31T09:04:16;12.80;99.90
64951;DHT22;51482;47.014;7.652;2023-03-31T09:06:58;13.30;99.90
64951;DHT22;51482;47.014;7.652;2023-03-31T09:12:17;13.40;99.90
64951;DHT22;51482;47.014;7.652;2023-03-31T09:15:00;13.80;99.90
64951;DHT22;51482;47.014;7.652;2023-03-31T09:17:29;13.20;99.90
64951;DHT22;51482;47.014;7.652;2023-03-31T09:23:24;13.60;99.90
64951;DHT22;51482;47.014;7.652;2023-03-31T09:25:52;14.30;99.90
64951;DHT22;51482;47.014;7.652;2023-03-31T09:28:32;15.40;99.90
64951;DHT22;51482;47.014;7.652;2023-03-31T09:30:59;15.70;99.90
64951;DHT22;51482;47.014;7.652;2023-03-31T09:33:29;15.70;99.90
64951;DHT22;51482;47.014;7.652;2023-03-31T09:35:59;16.20;99.90
64951;DHT22;51482;47.014;7.652;2023-03-31T09:38:25;16.00;99.90
64951;DHT22;51482;47.014;7.652;2023-03-31T09:40:57;15.70;99.90
64951;DHT22;51482;47.014;7.652;2023-03-31T09:43:25;16.10;99.90
64951;DHT22;51482;47.014;7.652;2023-03-31T09:45:51;16.20;99.90
64951;DHT22;51482;47.014;7.652;2023-03-31T09:48:20;16.30;99.90
64951;DHT22;51482;47.014;7.652;2023-03-31T09:51:03;16.50;99.90
64951;DHT22;51482;47.014;7.652;2023-03-31T09:53:39;15.80;99.90
64951;DHT22;51482;47.014;7.652;2023-03-31T09:56:06;15.90;99.90
64951;DHT22;51482;47.014;7.652;2023-03-31T09:58:43;15.80;99.90
64951;DHT22;51482;47.014;7.652;2023-03-31T10:01:12;16.00;99.90
64951;DHT22;51482;47.014;7.652;2023-03-31T10:03:51;16.20;99.90
64951;DHT22;51482;47.014;7.652;2023-03-31T10:06:21;16.20;99.90
64951;DHT22;51482;47.014;7.652;2023-03-31T10:08:58;16.60;99.90
64951;DHT22;51482;47.014;7.652;2023-03-31T10:11:25;16.60;99.90
64951;DHT22;51482;47.014;7.652;2023-03-31T10:14:03;17.00;99.90
64951;DHT22;51482;47.014;7.652;2023-03-31T10:16:32;16.40;99.90
64951;DHT22;51482;47.014;7.652;2023-03-31T10:19:20;16.30;99.90
64951;DHT22;51482;47.014;7.652;2023-03-31T10:21:48;16.90;99.90
64951;DHT22;51482;47.014;7.652;2023-03-31T10:24:18;17.30;99.90
64951;DHT22;51482;47.014;7.652;2023-03-31T10:26:48;17.00;99.90
64951;DHT22;51482;47.014;7.652;2023-03-31T10:29:20;17.40;99.90
64951;DHT22;51482;47.014;7.652;2023-03-31T10:31:47;17.70;99.90
64951;DHT22;51482;47.014;7.652;2023-03-31T10:34:15;17.80;99.90
64951;DHT22;51482;47.014;7.652;2023-03-31T10:36:49;17.20;98.60
64951;DHT22;51482;47.014;7.652;2023-03-31T10:39:18;17.20;98.40
64951;DHT22;51482;47.014;7.652;2023-03-31T10:41:50;17.80;96.90
64951;DHT22;51482;47.014;7.652;2023-03-31T10:44:36;18.10;94.80
64951;DHT22;51482;47.014;7.652;2023-03-31T10:49:40;18.60;92.70
64951;DHT22;51482;47.014;7.652;2023-03-31T10:52:22;19.20;92.20
64951;DHT22;51482;47.014;7.652;2023-03-31T10:54:51;18.40;90.20
64951;DHT22;51482;47.014;7.652;2023-03-31T10:57:18;18.40;92.30
64951;DHT22;51482;47.014;7.652;2023-03-31T11:03:28;17.30;94.50
64951;DHT22;51482;47.014;7.652;2023-03-31T11:05:52;18.20;93.70
64951;DHT22;51482;47.014;7.652;2023-03-31T11:16:18;18.40;89.90
64951;DHT22;51482;47.014;7.652;2023-03-31T11:30:12;18.00;81.40
64951;DHT22;51482;47.014;7.652;2023-03-31T11:36:06;18.40;85.50
64951;DHT22;51482;47.014;7.652;2023-03-31T11:38:58;18.30;85.40
64951;DHT22;51482;47.014;7.652;2023-03-31T11:41:33;17.80;84.50
64951;DHT22;51482;47.014;7.652;2023-03-31T11:44:04;17.60;84.50
64951;DHT22;51482;47.014;7.652;2023-03-31T11:46:39;17.50;85.40
64951;DHT22;51482;47.014;7.652;2023-03-31T11:49:17;17.00;85.20
64951;DHT22;51482;47.014;7.652;2023-03-31T11:51:56;16.40;87.90
64951;DHT22;51482;47.014;7.652;2023-03-31T11:57:28;15.30;96.40
64951;DHT22;51482;47.014;7.652;2023-03-31T12:00:23;14.50;99.20
64951;DHT22;51482;47.014;7.652;2023-03-31T12:02:52;14.80;99.90
64951;DHT22;51482;47.014;7.652;2023-03-31T12:05:21;14.70;99.90
64951;DHT22;51482;47.014;7.652;2023-03-31T12:07:58;14.30;99.90
64951;DHT22;51482;47.014;7.652;2023-03-31T12:10:34;14.80;99.90
64951;DHT22;51482;47.014;7.652;2023-03-31T12:15:57;13.90;99.90
64951;DHT22;51482;47.014;7.652;2023-03-31T12:18:30;14.20;99.90
64951;DHT22;51482;47.014;7.652;2023-03-31T12:21:00;13.70;99.90
64951;DHT22;51482;47.014;7.652;2023-03-31T12:23:34;13.60;99.90
64951;DHT22;51482;47.014;7.652;2023-03-31T12:28:50;12.80;99.90
64951;DHT22;51482;47.014;7.652;2023-03-31T12:31:20;12.90;99.90
64951;DHT22;51482;47.014;7.652;2023-03-31T12:34:04;12.80;99.90
64951;DHT22;51482;47.014;7.652;2023-03-31T12:40:11;12.40;99.90
64951;DHT22;51482;47.014;7.652;2023-03-31T12:45:30;12.10;99.90
64951;DHT22;51482;47.014;7.652;2023-03-31T12:48:10;11.80;99.90
64951;DHT22;51482;47.014;7.652;2023-03-31T12:50:42;11.70;99.90
64951;DHT22;51482;47.014;7.652;2023-03-31T12:53:23;11.60;99.70
64951;DHT22;51482;47.014;7.652;2023-03-31T12:55:55;12.10;99.50
64951;DHT22;51482;47.014;7.652;2023-03-31T13:08:53;11.30;99.90
64951;DHT22;51482;47.014;7.652;2023-03-31T13:11:21;11.40;99.90
64951;DHT22;51482;47.014;7.652;2023-03-31T13:14:00;11.90;99.90
64951;DHT22;51482;47.014;7.652;2023-03-31T13:16:31;12.90;99.90
64951;DHT22;51482;47.014;7.652;2023-03-31T13:18:57;13.10;99.90
64951;DHT22;51482;47.014;7.652;2023-03-31T13:21:23;13.60;99.30
64951;DHT22;51482;47.014;7.652;2023-03-31T13:23:50;14.10;99.60
64951;DHT22;51482;47.014;7.652;2023-03-31T13:26:35;14.70;98.60
64951;DHT22;51482;47.014;7.652;2023-03-31T13:34:44;15.70;99.70
64951;DHT22;51482;47.014;7.652;2023-03-31T13:37:28;15.30;97.90
64951;DHT22;51482;47.014;7.652;2023-03-31T13:42:52;15.40;97.20
64951;DHT22;51482;47.014;7.652;2023-03-31T13:45:51;15.30;96.30
64951;DHT22;51482;47.014;7.652;2023-03-31T13:51:40;16.20;95.70
64951;DHT22;51482;47.014;7.652;2023-03-31T14:02:56;17.00;94.30
64951;DHT22;51482;47.014;7.652;2023-03-31T14:08:11;16.50;92.40
64951;DHT22;51482;47.014;7.652;2023-03-31T14:10:40;15.80;92.20
64951;DHT22;51482;47.014;7.652;2023-03-31T14:13:10;15.30;93.20
64951;DHT22;51482;47.014;7.652;2023-03-31T14:15:48;16.80;93.90
64951;DHT22;51482;47.014;7.652;2023-03-31T14:18:28;16.30;93.70
64951;DHT22;51482;47.014;7.652;2023-03-31T14:24:00;15.90;92.20
64951;DHT22;51482;47.014;7.652;2023-03-31T14:29:30;15.80;92.40
64951;DHT22;51482;47.014;7.652;2023-03-31T14:32:16;15.80;92.10
64951;DHT22;51482;47.014;7.652;2023-03-31T14:35:02;16.20;90.60
64951;DHT22;51482;47.014;7.652;2023-03-31T14:37:30;16.10;91.10
64951;DHT22;51482;47.014;7.652;2023-03-31T14:39:56;16.10;90.70
64951;DHT22;51482;47.014;7.652;2023-03-31T14:42:37;15.50;91.10
64951;DHT22;51482;47.014;7.652;2023-03-31T14:45:10;15.20;91.50
64951;DHT22;51482;47.014;7.652;2023-03-31T14:47:40;15.00;91.90
64951;DHT22;51482;47.014;7.652;2023-03-31T14:50:16;15.00;91.90
64951;DHT22;51482;47.014;7.652;2023-03-31T14:52:50;14.30;92.40
64951;DHT22;51482;47.014;7.652;2023-03-31T14:55:19;14.20;95.00
64951;DHT22;51482;47.014;7.652;2023-03-31T14:57:48;12.40;99.90
64951;DHT22;51482;47.014;7.652;2023-03-31T15:00:19;12.30;99.90
64951;DHT22;51482;47.014;7.652;2023-03-31T15:02:48;11.30;99.90
64951;DHT22;51482;47.014;7.652;2023-03-31T15:08:15;10.40;99.90
64951;DHT22;51482;47.014;7.652;2023-03-31T15:10:44;10.30;99.90
64951;DHT22;51482;47.014;7.652;2023-03-31T15:13:18;9.60;99.90
64951;DHT22;51482;47.014;7.652;2023-03-31T15:15:44;9.50;99.90
64951;DHT22;51482;47.014;7.652;2023-03-31T15:18:15;9.90;99.90
64951;DHT22;51482;47.014;7.652;2023-03-31T15:20:42;10.20;99.90
64951;DHT22;51482;47.014;7.652;2023-03-31T15:23:23;9.90;99.90
64951;DHT22;51482;47.014;7.652;2023-03-31T15:25:52;10.60;99.90
64951;DHT22;51482;47.014;7.652;2023-03-31T15:28:20;11.50;99.90
64951;DHT22;51482;47.014;7.652;2023-03-31T15:30:48;11.50;99.90
64951;DHT22;51482;47.014;7.652;2023-03-31T15:33:22;12.70;99.90
64951;DHT22;51482;47.014;7.652;2023-03-31T15:35:51;12.00;99.90
64951;DHT22;51482;47.014;7.652;2023-03-31T15:38:17;13.00;99.90
64951;DHT22;51482;47.014;7.652;2023-03-31T15:40:43;12.90;99.90
64951;DHT22;51482;47.014;7.652;2023-03-31T15:43:13;13.50;99.90
64951;DHT22;51482;47.014;7.652;2023-03-31T15:45:46;14.10;99.90
64951;DHT22;51482;47.014;7.652;2023-03-31T15:48:22;14.20;99.90
64951;DHT22;51482;47.014;7.652;2023-03-31T15:50:49;14.10;99.90
64951;DHT22;51482;47.014;7.652;2023-03-31T15:53:47;13.80;99.90
64951;DHT22;51482;47.014;7.652;2023-03-31T15:56:27;13.30;99.90
64951;DHT22;51482;47.014;7.652;2023-03-31T16:01:21;12.70;99.90
64951;DHT22;51482;47.014;7.652;2023-03-31T16:03:47;12.90;99.90
64951;DHT22;51482;47.014;7.652;2023-03-31T16:06:25;12.80;99.90
64951;DHT22;51482;47.014;7.652;2023-03-31T16:09:03;11.90;99.90
64951;DHT22;51482;47.014;7.652;2023-03-31T16:14:11;11.50;99.90
64951;DHT22;51482;47.014;7.652;2023-03-31T16:16:37;12.00;99.90
64951;DHT22;51482;47.014;7.652;2023-03-31T16:19:07;11.90;99.90
64951;DHT22;51482;47.014;7.652;2023-03-31T16:21:46;11.50;99.90
64951;DHT22;51482;47.014;7.652;2023-03-31T16:24:20;11.70;99.90
64951;DHT22;51482;47.014;7.652;2023-03-31T16:26:46;11.50;99.90
64951;DHT22;51482;47.014;7.652;2023-03-31T16:29:20;11.70;99.90
64951;DHT22;51482;47.014;7.652;2023-03-31T16:31:46;12.50;99.90
64951;DHT22;51482;47.014;7.652;2023-03-31T16:34:12;12.60;99.90
64951;DHT22;51482;47.014;7.652;2023-03-31T16:36:38;12.40;99.90
64951;DHT22;51482;47.014;7.652;2023-03-31T16:39:05;12.40;99.90
64951;DHT22;51482;47.014;7.652;2023-03-31T16:41:32;12.30;99.90
64951;DHT22;51482;47.014;7.652;2023-03-31T16:43:59;11.70;99.90
64951;DHT22;51482;47.014;7.652;2023-03-31T16:46:25;12.20;99.90
64951;DHT22;51482;47.014;7.652;2023-03-31T16:48:51;11.50;99.90
64951;DHT22;51482;47.014;7.652;2023-03-31T16:51:17;11.70;99.90
64951;DHT22;51482;47.014;7.652;2023-03-31T16:53:44;12.00;99.90
64951;DHT22;51482;47.014;7.652;2023-03-31T16:56:10;12.30;99.90
64951;DHT22;51482;47.014;7.652;2023-03-31T16:58:39;11.90;99.90
64951;DHT22;51482;47.014;7.652;2023-03-31T17:01:06;11.40;99.90
64951;DHT22;51482;47.014;7.652;2023-03-31T17:03:32;11.90;99.90
64951;DHT22;51482;47.014;7.652;2023-03-31T17:06:10;12.00;99.90
64951;DHT22;51482;47.014;7.652;2023-03-31T17:08:37;11.10;99.90
64951;DHT22;51482;47.014;7.652;2023-03-31T17:13:31;11.70;99.90
64951;DHT22;51482;47.014;7.652;2023-03-31T17:15:58;10.60;99.90
64951;DHT22;51482;47.014;7.652;2023-03-31T17:18:24;11.20;99.90
64951;DHT22;51482;47.014;7.652;2023-03-31T17:20:51;11.90;99.90
64951;DHT22;51482;47.014;7.652;2023-03-31T17:23:19;11.30;99.90
64951;DHT22;51482;47.014;7.652;2023-03-31T17:25:49;12.60;99.90
64951;DHT22;51482;47.014;7.652;2023-03-31T17:28:15;11.70;99.90
64951;DHT22;51482;47.014;7.652;2023-03-31T17:30:41;11.80;99.90
64951;DHT22;51482;47.014;7.652;2023-03-31T17:33:09;11.50;99.90
64951;DHT22;51482;47.014;7.652;2023-03-31T17:35:36;11.10;99.90
64951;DHT22;51482;47.014;7.652;2023-03-31T17:38:01;10.30;99.90
64951;DHT22;51482;47.014;7.652;2023-03-31T17:40:28;9.60;99.90
64951;DHT22;51482;47.014;7.652;2023-03-31T17:42:55;9.30;99.90
64951;DHT22;51482;47.014;7.652;2023-03-31T17:45:21;9.30;99.90
64951;DHT22;51482;47.014;7.652;2023-03-31T17:47:46;9.80;99.90
64951;DHT22;51482;47.014;7.652;2023-03-31T17:50:12;8.80;99.90
64951;DHT22;51482;47.014;7.652;2023-03-31T17:52:37;9.20;99.90
64951;DHT22;51482;47.014;7.652;2023-03-31T17:55:03;8.90;99.90
64951;DHT22;51482;47.014;7.652;2023-03-31T17:57:30;9.20;99.90
64951;DHT22;51482;47.014;7.652;2023-03-31T17:59:56;9.20;99.90
64951;DHT22;51482;47.014;7.652;2023-03-31T18:02:22;9.00;99.90
64951;DHT22;51482;47.014;7.652;2023-03-31T18:04:48;8.50;99.90
64951;DHT22;51482;47.014;7.652;2023-03-31T18:07:14;8.80;99.90
64951;DHT22;51482;47.014;7.652;2023-03-31T18:09:39;8.90;99.90
64951;DHT22;51482;47.014;7.652;2023-03-31T18:12:05;8.50;99.90
64951;DHT22;51482;47.014;7.652;2023-03-31T18:14:30;8.90;99.90